sensor_id;sensor_type;location;lat;lon;timestamp;pressure;altitude;pressure_sealevel;temperature;humidity
72798;BME280;61084;55.816;37.036;2022-09-16T00:00:42;98034.34;;;8.87;70.11
72798;BME280;61084;55.816;37.036;2022-09-16T00:03:09;98035.19;;;8.88;70.87
72798;BME280;61084;55.816;37.036;2022-09-16T00:05:43;98029.94;;;8.88;70.35
72798;BME280;61084;55.816;37.036;2022-09-16T00:08:10;98034.25;;;8.89;70.81
72798;BME280;61084;55.816;37.036;2022-09-16T00:10:36;98034.25;;;8.89;71.01
72798;BME280;61084;55.816;37.036;2022-09-16T00:13:02;98031.34;;;8.93;71.15
72798;BME280;61084;55.816;37.036;2022-09-16T00:15:28;98032.16;;;8.94;71.09
72798;BME280;61084;55.816;37.036;2022-09-16T00:17:54;98029.53;;;8.94;70.94
72798;BME280;61084;55.816;37.036;2022-09-16T00:20:20;98025.88;;;8.96;70.74
72798;BME280;61084;55.816;37.036;2022-09-16T00:22:45;98023.16;;;8.98;70.56
72798;BME280;61084;55.816;37.036;2022-09-16T00:25:11;98026.53;;;9.00;70.58
72798;BME280;61084;55.816;37.036;2022-09-16T00:27:37;98033.31;;;9.02;70.69
72798;BME280;61084;55.816;37.036;2022-09-16T00:30:03;98026.19;;;9.04;71.03
72798;BME280;61084;55.816;37.036;2022-09-16T00:32:29;98023.28;;;9.09;71.35
72798;BME280;61084;55.816;37.036;2022-09-16T00:34:55;98026.63;;;9.11;71.08
72798;BME280;61084;55.816;37.036;2022-09-16T00:37:21;98021.88;;;9.16;71.24
72798;BME280;61084;55.816;37.036;2022-09-16T00:39:48;98018.94;;;9.21;71.37
72798;BME280;61084;55.816;37.036;2022-09-16T00:42:14;98028.19;;;9.26;71.87
72798;BME280;61084;55.816;37.036;2022-09-16T00:45:02;98018.19;;;9.31;71.71
72798;BME280;61084;55.816;37.036;2022-09-16T00:50:22;98014.81;;;9.42;71.89
72798;BME280;61084;55.816;37.036;2022-09-16T00:52:53;98011.88;;;9.46;71.50
72798;BME280;61084;55.816;37.036;2022-09-16T00:55:26;98011.69;;;9.49;71.47
72798;BME280;61084;55.816;37.036;2022-09-16T00:57:56;98009.66;;;9.53;71.65
72798;BME280;61084;55.816;37.036;2022-09-16T01:00:24;98003.50;;;9.54;71.59
72798;BME280;61084;55.816;37.036;2022-09-16T01:02:50;98002.53;;;9.55;71.64
72798;BME280;61084;55.816;37.036;2022-09-16T01:05:20;97997.22;;;9.56;71.31
72798;BME280;61084;55.816;37.036;2022-09-16T01:07:48;98004.94;;;9.58;71.54
72798;BME280;61084;55.816;37.036;2022-09-16T01:10:21;98000.66;;;9.57;71.45
72798;BME280;61084;55.816;37.036;2022-09-16T01:12:57;98010.38;;;9.55;71.24
72798;BME280;61084;55.816;37.036;2022-09-16T01:15:40;98006.22;;;9.52;71.41
72798;BME280;61084;55.816;37.036;2022-09-16T01:18:21;98007.28;;;9.50;71.30
72798;BME280;61084;55.816;37.036;2022-09-16T01:21:02;98011.69;;;9.49;71.45
72798;BME280;61084;55.816;37.036;2022-09-16T01:34:37;98011.59;;;9.38;70.97
72798;BME280;61084;55.816;37.036;2022-09-16T01:37:24;98010.03;;;9.36;71.15
72798;BME280;61084;55.816;37.036;2022-09-16T01:40:15;97997.91;;;9.35;70.93
72798;BME280;61084;55.816;37.036;2022-09-16T01:46:19;97993.59;;;9.34;71.00
72798;BME280;61084;55.816;37.036;2022-09-16T01:48:56;97999.78;;;9.33;70.66
72798;BME280;61084;55.816;37.036;2022-09-16T01:52:16;97992.00;;;9.31;71.19
72798;BME280;61084;55.816;37.036;2022-09-16T01:54:31;97992.75;;;9.33;71.35
72798;BME280;61084;55.816;37.036;2022-09-16T01:57:05;97988.34;;;9.34;71.23
72798;BME280;61084;55.816;37.036;2022-09-16T01:59:41;97991.69;;;9.36;71.13
72798;BME280;61084;55.816;37.036;2022-09-16T02:02:32;97997.56;;;9.39;71.45
72798;BME280;61084;55.816;37.036;2022-09-16T02:05:05;97994.72;;;9.42;71.48
72798;BME280;61084;55.816;37.036;2022-09-16T02:07:37;98006.75;;;9.45;71.60
72798;BME280;61084;55.816;37.036;2022-09-16T02:12:59;97985.16;;;9.54;71.95
72798;BME280;61084;55.816;37.036;2022-09-16T02:15:28;97980.53;;;9.57;71.88
72798;BME280;61084;55.816;37.036;2022-09-16T02:18:01;97990.81;;;9.60;71.72
72798;BME280;61084;55.816;37.036;2022-09-16T02:20:30;97988.78;;;9.64;72.17
72798;BME280;61084;55.816;37.036;2022-09-16T02:23:03;97975.59;;;9.65;72.18
72798;BME280;61084;55.816;37.036;2022-09-16T02:25:34;97965.72;;;9.69;72.44
72798;BME280;61084;55.816;37.036;2022-09-16T02:28:07;97960.03;;;9.75;72.33
72798;BME280;61084;55.816;37.036;2022-09-16T02:30:42;97956.97;;;9.81;72.34
72798;BME280;61084;55.816;37.036;2022-09-16T02:33:11;97954.97;;;9.84;72.38
72798;BME280;61084;55.816;37.036;2022-09-16T02:35:40;97949.50;;;9.87;72.71
72798;BME280;61084;55.816;37.036;2022-09-16T02:38:11;97951.91;;;9.91;73.12
72798;BME280;61084;55.816;37.036;2022-09-16T02:40:49;97956.94;;;9.94;73.55
72798;BME280;61084;55.816;37.036;2022-09-16T02:43:16;97967.16;;;9.97;73.15
72798;BME280;61084;55.816;37.036;2022-09-16T02:51:05;97966.38;;;10.07;73.24
72798;BME280;61084;55.816;37.036;2022-09-16T02:56:23;97965.25;;;10.11;73.03
72798;BME280;61084;55.816;37.036;2022-09-16T02:58:51;97968.59;;;10.13;73.15
72798;BME280;61084;55.816;37.036;2022-09-16T03:01:18;97965.72;;;10.16;73.11
72798;BME280;61084;55.816;37.036;2022-09-16T03:03:46;97959.56;;;10.17;72.76
72798;BME280;61084;55.816;37.036;2022-09-16T03:06:18;97957.53;;;10.21;72.87
72798;BME280;61084;55.816;37.036;2022-09-16T03:08:45;97958.16;;;10.24;72.89
72798;BME280;61084;55.816;37.036;2022-09-16T03:11:22;97960.53;;;10.27;72.89
72798;BME280;61084;55.816;37.036;2022-09-16T03:16:37;97956.72;;;10.31;72.96
72798;BME280;61084;55.816;37.036;2022-09-16T03:22:25;97957.94;;;10.38;73.05
72798;BME280;61084;55.816;37.036;2022-09-16T03:25:09;97953.63;;;10.37;73.55
72798;BME280;61084;55.816;37.036;2022-09-16T03:28:14;97962.00;;;10.42;73.37
72798;BME280;61084;55.816;37.036;2022-09-16T03:31:06;97966.06;;;10.46;73.48
72798;BME280;61084;55.816;37.036;2022-09-16T03:33:46;97959.75;;;10.49;73.21
72798;BME280;61084;55.816;37.036;2022-09-16T03:36:18;97965.63;;;10.52;73.42
72798;BME280;61084;55.816;37.036;2022-09-16T03:38:45;97955.72;;;10.56;73.33
72798;BME280;61084;55.816;37.036;2022-09-16T03:41:12;97959.91;;;10.58;73.14
72798;BME280;61084;55.816;37.036;2022-09-16T03:43:38;97961.47;;;10.61;73.44
72798;BME280;61084;55.816;37.036;2022-09-16T03:46:09;97963.84;;;10.64;73.43
72798;BME280;61084;55.816;37.036;2022-09-16T03:48:36;97965.25;;;10.68;73.60
72798;BME280;61084;55.816;37.036;2022-09-16T03:51:01;97959.06;;;10.69;73.70
72798;BME280;61084;55.816;37.036;2022-09-16T03:53:27;97964.81;;;10.74;73.54
72798;BME280;61084;55.816;37.036;2022-09-16T03:55:53;97964.47;;;10.79;73.49
72798;BME280;61084;55.816;37.036;2022-09-16T03:58:19;97962.44;;;10.82;73.39
72798;BME280;61084;55.816;37.036;2022-09-16T04:00:48;97962.22;;;10.85;73.66
72798;BME280;61084;55.816;37.036;2022-09-16T04:03:15;97959.59;;;10.85;73.59
72798;BME280;61084;55.816;37.036;2022-09-16T04:05:41;97956.84;;;10.87;73.69
72798;BME280;61084;55.816;37.036;2022-09-16T04:08:07;97963.50;;;10.91;73.63
72798;BME280;61084;55.816;37.036;2022-09-16T04:10:33;97962.31;;;10.95;73.70
72798;BME280;61084;55.816;37.036;2022-09-16T04:12:59;97961.25;;;10.97;73.63
72798;BME280;61084;55.816;37.036;2022-09-16T04:15:25;97965.44;;;11.00;73.60
72798;BME280;61084;55.816;37.036;2022-09-16T04:17:51;97965.19;;;11.03;73.77
72798;BME280;61084;55.816;37.036;2022-09-16T04:20:16;97962.31;;;11.06;73.61
72798;BME280;61084;55.816;37.036;2022-09-16T04:22:42;97956.94;;;11.07;73.74
72798;BME280;61084;55.816;37.036;2022-09-16T04:25:08;97961.13;;;11.10;73.68
72798;BME280;61084;55.816;37.036;2022-09-16T04:27:34;97963.41;;;11.14;73.67
72798;BME280;61084;55.816;37.036;2022-09-16T04:30:00;97965.66;;;11.19;73.88
72798;BME280;61084;55.816;37.036;2022-09-16T04:32:28;97958.50;;;11.21;73.86
72798;BME280;61084;55.816;37.036;2022-09-16T04:34:54;97963.63;;;11.22;73.95
72798;BME280;61084;55.816;37.036;2022-09-16T04:37:20;97966.97;;;11.24;73.99
72798;BME280;61084;55.816;37.036;2022-09-16T04:39:45;97957.31;;;11.25;73.94
72798;BME280;61084;55.816;37.036;2022-09-16T04:42:11;97951.09;;;11.26;74.09
72798;BME280;61084;55.816;37.036;2022-09-16T04:44:38;97957.66;;;11.31;74.29
72798;BME280;61084;55.816;37.036;2022-09-16T04:47:03;97945.34;;;11.32;74.13
72798;BME280;61084;55.816;37.036;2022-09-16T04:49:29;97949.41;;;11.36;74.12
72798;BME280;61084;55.816;37.036;2022-09-16T04:51:55;97949.03;;;11.41;74.23
72798;BME280;61084;55.816;37.036;2022-09-16T04:54:21;97953.81;;;11.47;74.17
72798;BME280;61084;55.816;37.036;2022-09-16T04:56:47;97965.03;;;11.49;74.01
72798;BME280;61084;55.816;37.036;2022-09-16T04:59:13;97965.63;;;11.52;74.26
72798;BME280;61084;55.816;37.036;2022-09-16T05:01:39;97956.41;;;11.58;74.24
72798;BME280;61084;55.816;37.036;2022-09-16T05:04:05;97947.47;;;11.60;74.41
72798;BME280;61084;55.816;37.036;2022-09-16T05:06:32;97949.72;;;11.65;74.46
72798;BME280;61084;55.816;37.036;2022-09-16T05:08:59;97946.03;;;11.67;74.40
72798;BME280;61084;55.816;37.036;2022-09-16T05:11:28;97934.31;;;11.71;74.66
72798;BME280;61084;55.816;37.036;2022-09-16T05:13:58;97931.47;;;11.74;74.53
72798;BME280;61084;55.816;37.036;2022-09-16T05:16:25;97928.56;;;11.77;74.31
72798;BME280;61084;55.816;37.036;2022-09-16T05:18:54;97929.28;;;11.79;74.35
72798;BME280;61084;55.816;37.036;2022-09-16T05:21:22;97920.31;;;11.82;73.90
72798;BME280;61084;55.816;37.036;2022-09-16T05:23:49;97919.22;;;11.84;74.83
72798;BME280;61084;55.816;37.036;2022-09-16T05:26:20;97919.00;;;11.87;74.46
72798;BME280;61084;55.816;37.036;2022-09-16T05:28:47;97921.47;;;11.89;74.72
72798;BME280;61084;55.816;37.036;2022-09-16T05:31:15;97922.06;;;11.92;74.67
72798;BME280;61084;55.816;37.036;2022-09-16T05:33:47;97924.44;;;11.95;75.05
72798;BME280;61084;55.816;37.036;2022-09-16T05:36:17;97919.03;;;11.97;74.85
72798;BME280;61084;55.816;37.036;2022-09-16T05:38:44;97922.16;;;12.02;74.72
72798;BME280;61084;55.816;37.036;2022-09-16T05:41:10;97912.06;;;12.07;75.09
72798;BME280;61084;55.816;37.036;2022-09-16T05:43:36;97902.38;;;12.07;74.89
72798;BME280;61084;55.816;37.036;2022-09-16T05:46:04;97900.91;;;12.15;74.77
72798;BME280;61084;55.816;37.036;2022-09-16T05:48:30;97905.22;;;12.16;74.92
72798;BME280;61084;55.816;37.036;2022-09-16T05:51:00;97901.38;;;12.20;74.67
72798;BME280;61084;55.816;37.036;2022-09-16T05:53:28;97905.56;;;12.22;74.47
72798;BME280;61084;55.816;37.036;2022-09-16T05:55:59;97902.66;;;12.25;74.63
72798;BME280;61084;55.816;37.036;2022-09-16T05:58:27;97904.91;;;12.30;74.61
72798;BME280;61084;55.816;37.036;2022-09-16T06:01:17;97897.31;;;12.36;74.91
72798;BME280;61084;55.816;37.036;2022-09-16T06:03:44;97898.16;;;12.37;74.32
72798;BME280;61084;55.816;37.036;2022-09-16T06:06:28;97901.97;;;12.44;74.68
72798;BME280;61084;55.816;37.036;2022-09-16T06:09:00;97900.34;;;12.52;74.54
72798;BME280;61084;55.816;37.036;2022-09-16T06:11:27;97892.47;;;12.62;74.74
72798;BME280;61084;55.816;37.036;2022-09-16T06:13:54;97887.97;;;12.73;74.87
72798;BME280;61084;55.816;37.036;2022-09-16T06:16:21;97886.22;;;12.83;74.82
72798;BME280;61084;55.816;37.036;2022-09-16T06:18:47;97883.78;;;12.92;74.68
72798;BME280;61084;55.816;37.036;2022-09-16T06:21:13;97879.50;;;13.00;74.54
72798;BME280;61084;55.816;37.036;2022-09-16T06:23:40;97883.16;;;13.09;74.76
72798;BME280;61084;55.816;37.036;2022-09-16T06:26:12;97880.25;;;13.12;74.91
72798;BME280;61084;55.816;37.036;2022-09-16T06:28:39;97888.59;;;13.17;74.43
72798;BME280;61084;55.816;37.036;2022-09-16T06:31:14;97892.06;;;13.17;74.66
72798;BME280;61084;55.816;37.036;2022-09-16T06:33:41;97889.03;;;13.22;74.62
72798;BME280;61084;55.816;37.036;2022-09-16T06:36:09;97888.75;;;13.25;74.64
72798;BME280;61084;55.816;37.036;2022-09-16T06:38:36;97886.81;;;13.27;74.41
72798;BME280;61084;55.816;37.036;2022-09-16T06:41:03;97886.28;;;13.33;74.17
72798;BME280;61084;55.816;37.036;2022-09-16T06:43:30;97875.34;;;13.37;74.43
72798;BME280;61084;55.816;37.036;2022-09-16T06:46:07;97882.69;;;13.43;74.30
72798;BME280;61084;55.816;37.036;2022-09-16T06:48:39;97884.09;;;13.47;74.40
72798;BME280;61084;55.816;37.036;2022-09-16T06:51:14;97873.13;;;13.52;74.27
72798;BME280;61084;55.816;37.036;2022-09-16T06:53:41;97873.00;;;13.53;74.61
72798;BME280;61084;55.816;37.036;2022-09-16T06:56:13;97876.22;;;13.57;74.30
72798;BME280;61084;55.816;37.036;2022-09-16T06:58:41;97868.28;;;13.67;74.38
72798;BME280;61084;55.816;37.036;2022-09-16T07:01:09;97866.09;;;13.72;74.31
72798;BME280;61084;55.816;37.036;2022-09-16T07:03:37;97866.47;;;13.77;74.25
72798;BME280;61084;55.816;37.036;2022-09-16T07:06:03;97868.69;;;13.81;74.11
72798;BME280;61084;55.816;37.036;2022-09-16T07:08:30;97876.34;;;13.84;74.11
72798;BME280;61084;55.816;37.036;2022-09-16T07:11:05;97870.66;;;13.89;73.94
72798;BME280;61084;55.816;37.036;2022-09-16T07:13:31;97870.09;;;13.95;73.84
72798;BME280;61084;55.816;37.036;2022-09-16T07:16:01;97871.63;;;13.97;73.49
72798;BME280;61084;55.816;37.036;2022-09-16T07:18:28;97861.63;;;14.01;74.02
72798;BME280;61084;55.816;37.036;2022-09-16T07:21:11;97867.16;;;14.07;74.19
72798;BME280;61084;55.816;37.036;2022-09-16T07:23:38;97864.78;;;14.14;73.62
72798;BME280;61084;55.816;37.036;2022-09-16T07:28:35;97856.72;;;14.25;73.73
72798;BME280;61084;55.816;37.036;2022-09-16T07:31:07;97861.34;;;14.32;73.87
72798;BME280;61084;55.816;37.036;2022-09-16T07:33:38;97856.34;;;14.39;73.60
72798;BME280;61084;55.816;37.036;2022-09-16T07:36:06;97850.31;;;14.47;73.55
72798;BME280;61084;55.816;37.036;2022-09-16T07:38:32;97848.63;;;14.55;73.48
72798;BME280;61084;55.816;37.036;2022-09-16T07:41:07;97848.88;;;14.62;73.54
72798;BME280;61084;55.816;37.036;2022-09-16T07:43:34;97844.84;;;14.67;73.39
72798;BME280;61084;55.816;37.036;2022-09-16T07:46:00;97839.66;;;14.75;73.32
72798;BME280;61084;55.816;37.036;2022-09-16T07:48:31;97840.47;;;14.85;73.51
72798;BME280;61084;55.816;37.036;2022-09-16T07:51:08;97836.13;;;14.94;73.57
72798;BME280;61084;55.816;37.036;2022-09-16T07:53:35;97838.16;;;15.00;73.38
72798;BME280;61084;55.816;37.036;2022-09-16T07:56:02;97832.28;;;15.06;73.61
72798;BME280;61084;55.816;37.036;2022-09-16T07:58:29;97822.13;;;15.11;73.37
72798;BME280;61084;55.816;37.036;2022-09-16T08:00:55;97818.34;;;15.14;73.22
72798;BME280;61084;55.816;37.036;2022-09-16T08:03:21;97826.66;;;15.19;72.64
72798;BME280;61084;55.816;37.036;2022-09-16T08:05:47;97825.91;;;15.26;73.01
72798;BME280;61084;55.816;37.036;2022-09-16T08:08:13;97824.47;;;15.32;72.78
72798;BME280;61084;55.816;37.036;2022-09-16T08:10:38;97816.50;;;15.41;72.98
72798;BME280;61084;55.816;37.036;2022-09-16T08:13:05;97815.47;;;15.52;73.04
72798;BME280;61084;55.816;37.036;2022-09-16T08:15:31;97813.72;;;15.60;72.96
72798;BME280;61084;55.816;37.036;2022-09-16T08:17:57;97807.84;;;15.66;72.44
72798;BME280;61084;55.816;37.036;2022-09-16T08:20:24;97808.50;;;15.68;72.33
72798;BME280;61084;55.816;37.036;2022-09-16T08:22:50;97806.09;;;15.75;72.27
72798;BME280;61084;55.816;37.036;2022-09-16T08:25:16;97795.72;;;15.81;71.77
72798;BME280;61084;55.816;37.036;2022-09-16T08:27:42;97789.69;;;15.89;71.83
72798;BME280;61084;55.816;37.036;2022-09-16T08:30:09;97799.34;;;15.98;71.67
72798;BME280;61084;55.816;37.036;2022-09-16T08:32:35;97791.16;;;16.09;71.74
72798;BME280;61084;55.816;37.036;2022-09-16T08:35:02;97797.00;;;16.21;71.90
72798;BME280;61084;55.816;37.036;2022-09-16T08:37:29;97793.59;;;16.28;71.62
72798;BME280;61084;55.816;37.036;2022-09-16T08:39:54;97798.28;;;16.34;71.91
72798;BME280;61084;55.816;37.036;2022-09-16T08:48:28;97799.22;;;16.51;71.85
72798;BME280;61084;55.816;37.036;2022-09-16T08:50:56;97790.78;;;16.55;71.37
72798;BME280;61084;55.816;37.036;2022-09-16T08:53:46;97795.63;;;16.60;71.39
72798;BME280;61084;55.816;37.036;2022-09-16T08:56:18;97797.13;;;16.63;71.31
72798;BME280;61084;55.816;37.036;2022-09-16T08:58:46;97794.47;;;16.63;71.98
72798;BME280;61084;55.816;37.036;2022-09-16T09:04:08;97779.94;;;16.75;71.32
72798;BME280;61084;55.816;37.036;2022-09-16T09:07:00;97777.50;;;16.81;71.33
72798;BME280;61084;55.816;37.036;2022-09-16T09:09:56;97772.56;;;16.86;71.55
72798;BME280;61084;55.816;37.036;2022-09-16T09:15:17;97773.41;;;16.87;71.02
72798;BME280;61084;55.816;37.036;2022-09-16T09:23:47;97769.06;;;16.86;70.70
72798;BME280;61084;55.816;37.036;2022-09-16T09:26:21;97767.09;;;16.88;70.61
72798;BME280;61084;55.816;37.036;2022-09-16T09:42:30;97771.66;;;17.11;69.95
72798;BME280;61084;55.816;37.036;2022-09-16T09:45:07;97767.03;;;17.13;69.64
72798;BME280;61084;55.816;37.036;2022-09-16T09:48:01;97760.56;;;17.16;69.60
72798;BME280;61084;55.816;37.036;2022-09-16T09:50:40;97764.22;;;17.23;69.30
72798;BME280;61084;55.816;37.036;2022-09-16T09:55:37;97762.94;;;17.35;69.40
72798;BME280;61084;55.816;37.036;2022-09-16T10:00:47;97757.13;;;17.48;69.12
72798;BME280;61084;55.816;37.036;2022-09-16T10:03:15;97750.34;;;17.53;68.51
72798;BME280;61084;55.816;37.036;2022-09-16T10:05:43;97748.38;;;17.55;68.58
72798;BME280;61084;55.816;37.036;2022-09-16T10:10:56;97746.06;;;17.52;67.51
72798;BME280;61084;55.816;37.036;2022-09-16T10:13:23;97737.56;;;17.49;67.75
72798;BME280;61084;55.816;37.036;2022-09-16T10:15:53;97740.94;;;17.51;67.79
72798;BME280;61084;55.816;37.036;2022-09-16T10:18:26;97739.22;;;17.50;67.89
72798;BME280;61084;55.816;37.036;2022-09-16T10:21:05;97738.56;;;17.48;67.67
72798;BME280;61084;55.816;37.036;2022-09-16T10:23:33;97741.53;;;17.45;66.70
72798;BME280;61084;55.816;37.036;2022-09-16T10:28:41;97735.38;;;17.36;67.32
72798;BME280;61084;55.816;37.036;2022-09-16T10:31:17;97737.22;;;17.35;67.34
72798;BME280;61084;55.816;37.036;2022-09-16T10:33:43;97734.91;;;17.32;67.65
72798;BME280;61084;55.816;37.036;2022-09-16T10:36:19;97730.91;;;17.28;68.00
72798;BME280;61084;55.816;37.036;2022-09-16T10:38:50;97726.09;;;17.24;67.97
72798;BME280;61084;55.816;37.036;2022-09-16T10:41:26;97725.09;;;17.17;68.64
72798;BME280;61084;55.816;37.036;2022-09-16T10:43:53;97733.34;;;17.06;68.84
72798;BME280;61084;55.816;37.036;2022-09-16T10:46:21;97728.22;;;16.96;68.97
72798;BME280;61084;55.816;37.036;2022-09-16T10:48:48;97716.59;;;16.89;69.08
72798;BME280;61084;55.816;37.036;2022-09-16T10:51:26;97718.72;;;16.86;69.18
72798;BME280;61084;55.816;37.036;2022-09-16T10:53:55;97711.59;;;16.78;69.46
72798;BME280;61084;55.816;37.036;2022-09-16T10:56:25;97718.88;;;16.76;69.55
72798;BME280;61084;55.816;37.036;2022-09-16T10:59:14;97721.66;;;16.75;69.80
72798;BME280;61084;55.816;37.036;2022-09-16T11:02:06;97721.53;;;16.76;69.74
72798;BME280;61084;55.816;37.036;2022-09-16T11:07:45;97716.03;;;16.70;69.91
72798;BME280;61084;55.816;37.036;2022-09-16T11:13:13;97712.53;;;16.61;70.28
72798;BME280;61084;55.816;37.036;2022-09-16T11:16:16;97710.69;;;16.62;70.32
72798;BME280;61084;55.816;37.036;2022-09-16T11:24:46;97700.59;;;16.57;70.41
72798;BME280;61084;55.816;37.036;2022-09-16T11:57:28;97680.81;;;16.43;70.60
72798;BME280;61084;55.816;37.036;2022-09-16T11:59:58;97677.31;;;16.43;70.56
72798;BME280;61084;55.816;37.036;2022-09-16T12:02:30;97677.31;;;16.43;70.70
72798;BME280;61084;55.816;37.036;2022-09-16T12:05:18;97669.38;;;16.43;70.83
72798;BME280;61084;55.816;37.036;2022-09-16T12:10:44;97663.41;;;16.41;70.98
72798;BME280;61084;55.816;37.036;2022-09-16T12:13:15;97659.25;;;16.38;70.79
72798;BME280;61084;55.816;37.036;2022-09-16T12:15:51;97661.06;;;16.38;71.21
72798;BME280;61084;55.816;37.036;2022-09-16T12:18:18;97665.69;;;16.36;70.95
72798;BME280;61084;55.816;37.036;2022-09-16T12:20:50;97661.53;;;16.33;71.11
72798;BME280;61084;55.816;37.036;2022-09-16T12:23:23;97672.47;;;16.30;70.92
72798;BME280;61084;55.816;37.036;2022-09-16T12:26:21;97670.66;;;16.31;71.24
72798;BME280;61084;55.816;37.036;2022-09-16T12:29:35;97683.06;;;16.30;71.19
72798;BME280;61084;55.816;37.036;2022-09-16T12:31:57;97676.44;;;16.26;71.47
72798;BME280;61084;55.816;37.036;2022-09-16T12:34:40;97673.78;;;16.26;71.52
72798;BME280;61084;55.816;37.036;2022-09-16T12:39:42;97683.03;;;16.22;71.15
72798;BME280;61084;55.816;37.036;2022-09-16T12:54:08;97681.44;;;16.04;71.88
72798;BME280;61084;55.816;37.036;2022-09-16T12:56:56;97678.94;;;16.02;71.52
72798;BME280;61084;55.816;37.036;2022-09-16T13:03:06;97673.94;;;15.99;71.87
72798;BME280;61084;55.816;37.036;2022-09-16T13:05:28;97676.09;;;15.96;71.71
72798;BME280;61084;55.816;37.036;2022-09-16T13:07:57;97675.94;;;15.97;71.73
72798;BME280;61084;55.816;37.036;2022-09-16T13:10:39;97669.13;;;15.95;71.91
72798;BME280;61084;55.816;37.036;2022-09-16T13:13:06;97668.16;;;15.96;71.88
72798;BME280;61084;55.816;37.036;2022-09-16T13:15:37;97662.88;;;15.96;71.83
72798;BME280;61084;55.816;37.036;2022-09-16T13:20:49;97656.53;;;15.89;72.07
72798;BME280;61084;55.816;37.036;2022-09-16T13:23:21;97655.56;;;15.90;72.19
72798;BME280;61084;55.816;37.036;2022-09-16T13:33:46;97651.03;;;15.82;72.11
72798;BME280;61084;55.816;37.036;2022-09-16T13:38:50;97648.34;;;15.74;72.55
72798;BME280;61084;55.816;37.036;2022-09-16T13:43:57;97640.72;;;15.71;72.51
72798;BME280;61084;55.816;37.036;2022-09-16T13:46:33;97639.19;;;15.68;72.81
72798;BME280;61084;55.816;37.036;2022-09-16T13:51:29;97637.69;;;15.66;72.90
72798;BME280;61084;55.816;37.036;2022-09-16T13:53:55;97634.38;;;15.64;72.72
72798;BME280;61084;55.816;37.036;2022-09-16T13:59:38;97620.16;;;15.57;73.24
72798;BME280;61084;55.816;37.036;2022-09-16T14:08:15;97615.94;;;15.46;73.48
72798;BME280;61084;55.816;37.036;2022-09-16T14:10:47;97612.47;;;15.46;73.67
72798;BME280;61084;55.816;37.036;2022-09-16T14:13:17;97598.25;;;15.47;73.33
72798;BME280;61084;55.816;37.036;2022-09-16T14:15:55;97595.75;;;15.45;73.58
72798;BME280;61084;55.816;37.036;2022-09-16T14:18:33;97589.81;;;15.43;73.55
72798;BME280;61084;55.816;37.036;2022-09-16T14:21:05;97592.56;;;15.42;73.29
72798;BME280;61084;55.816;37.036;2022-09-16T14:23:32;97588.44;;;15.39;73.07
72798;BME280;61084;55.816;37.036;2022-09-16T14:26:29;97598.31;;;15.37;73.92
72798;BME280;61084;55.816;37.036;2022-09-16T14:29:03;97599.63;;;15.33;73.88
72798;BME280;61084;55.816;37.036;2022-09-16T14:31:31;97601.28;;;15.34;73.75
72798;BME280;61084;55.816;37.036;2022-09-16T14:34:01;97597.94;;;15.32;73.45
72798;BME280;61084;55.816;37.036;2022-09-16T14:36:34;97592.66;;;15.32;73.40
72798;BME280;61084;55.816;37.036;2022-09-16T14:41:43;97601.69;;;15.22;74.26
72798;BME280;61084;55.816;37.036;2022-09-16T14:49:22;97612.03;;;15.15;73.54
72798;BME280;61084;55.816;37.036;2022-09-16T14:51:49;97609.41;;;15.15;73.89
72798;BME280;61084;55.816;37.036;2022-09-16T14:54:18;97597.97;;;15.15;73.92
72798;BME280;61084;55.816;37.036;2022-09-16T14:59:34;97593.00;;;15.11;74.02
72798;BME280;61084;55.816;37.036;2022-09-16T15:02:06;97591.34;;;15.10;74.05
72798;BME280;61084;55.816;37.036;2022-09-16T15:04:38;97592.31;;;15.09;73.95
72798;BME280;61084;55.816;37.036;2022-09-16T15:07:22;97599.94;;;15.13;73.74
72798;BME280;61084;55.816;37.036;2022-09-16T15:09:51;97594.97;;;15.09;74.14
72798;BME280;61084;55.816;37.036;2022-09-16T15:12:34;97595.13;;;15.08;73.70
72798;BME280;61084;55.816;37.036;2022-09-16T15:15:33;97600.13;;;15.11;73.45
72798;BME280;61084;55.816;37.036;2022-09-16T15:18:08;97597.59;;;15.09;73.55
72798;BME280;61084;55.816;37.036;2022-09-16T15:20:38;97597.94;;;15.06;73.71
72798;BME280;61084;55.816;37.036;2022-09-16T15:23:13;97604.34;;;15.04;73.67
72798;BME280;61084;55.816;37.036;2022-09-16T15:25:54;97603.84;;;15.00;73.75
72798;BME280;61084;55.816;37.036;2022-09-16T15:28:21;97603.00;;;15.00;73.55
72798;BME280;61084;55.816;37.036;2022-09-16T15:30:49;97592.09;;;15.03;73.55
72798;BME280;61084;55.816;37.036;2022-09-16T15:33:44;97595.34;;;14.97;73.79
72798;BME280;61084;55.816;37.036;2022-09-16T15:36:40;97592.03;;;14.95;73.63
72798;BME280;61084;55.816;37.036;2022-09-16T15:42:12;97578.44;;;14.90;73.88
72798;BME280;61084;55.816;37.036;2022-09-16T15:44:49;97575.97;;;14.88;73.69
72798;BME280;61084;55.816;37.036;2022-09-16T15:47:19;97570.84;;;14.87;73.82
72798;BME280;61084;55.816;37.036;2022-09-16T15:49:49;97576.28;;;14.85;73.65
72798;BME280;61084;55.816;37.036;2022-09-16T15:52:17;97574.91;;;14.81;73.64
72798;BME280;61084;55.816;37.036;2022-09-16T16:00:16;97573.28;;;14.80;73.79
72798;BME280;61084;55.816;37.036;2022-09-16T16:03:00;97573.09;;;14.82;73.77
72798;BME280;61084;55.816;37.036;2022-09-16T16:05:29;97577.56;;;14.81;73.53
72798;BME280;61084;55.816;37.036;2022-09-16T16:07:58;97579.22;;;14.82;73.61
72798;BME280;61084;55.816;37.036;2022-09-16T16:10:32;97588.13;;;14.81;73.75
72798;BME280;61084;55.816;37.036;2022-09-16T16:13:01;97588.13;;;14.81;73.52
72798;BME280;61084;55.816;37.036;2022-09-16T16:15:32;97592.28;;;14.84;73.56
72798;BME280;61084;55.816;37.036;2022-09-16T16:18:01;97589.50;;;14.85;73.65
72798;BME280;61084;55.816;37.036;2022-09-16T16:20:28;97588.34;;;14.88;73.62
72798;BME280;61084;55.816;37.036;2022-09-16T16:22:59;97585.34;;;14.83;73.48